Time;durP1;ratioP1;P1;durP2;ratioP2;P2;SDS_P1;SDS_P2;PMS_P1;PMS_P2;Temp;Humidity;BMP_temperature;BMP_pressure;BME280_temperature;BME280_humidity;BME280_pressure;Samples;Min_cycle;Max_cycle;Signal;HPM_P1;HPM_P2
2021/04/02 00:00:40;;;;;;;20.55;9.85;;;15.20;55.60;;;;;;4996960;28;20475;-69
2021/04/02 00:03:14;;;;;;;15.77;9.02;;;15.20;54.60;;;;;;4996893;28;20023;-69
2021/04/02 00:05:40;;;;;;;18.00;8.98;;;15.20;54.80;;;;;;4996928;28;20034;-69
2021/04/02 00:08:07;;;;;;;17.75;8.43;;;15.20;55.30;;;;;;4996648;28;20058;-69
2021/04/02 00:10:40;;;;;;;13.07;7.55;;;15.20;55.30;;;;;;4996740;28;20101;-69
2021/04/02 00:13:06;;;;;;;15.43;7.72;;;15.20;55.30;;;;;;4997045;28;20034;-69
2021/04/02 00:15:32;;;;;;;13.45;7.68;;;15.10;55.10;;;;;;4996990;28;20395;-69
2021/04/02 00:17:57;;;;;;;15.68;8.32;;;15.10;55.70;;;;;;4996572;28;20042;-68
2021/04/02 00:20:23;;;;;;;13.48;7.78;;;15.10;55.90;;;;;;4996435;28;20018;-68
2021/04/02 00:22:49;;;;;;;13.10;7.15;;;15.10;56.00;;;;;;4996759;28;20026;-69
2021/04/02 00:25:15;;;;;;;14.20;7.43;;;15.10;55.80;;;;;;4996500;28;20025;-68
2021/04/02 00:27:42;;;;;;;12.80;7.57;;;15.00;57.30;;;;;;4996053;28;20032;-68
2021/04/02 00:30:14;;;;;;;15.40;7.72;;;15.00;57.00;;;;;;4996401;28;20026;-68
2021/04/02 00:32:40;;;;;;;18.35;7.53;;;15.00;56.30;;;;;;4996439;28;20030;-68
2021/04/02 00:35:06;;;;;;;15.75;7.40;;;15.00;56.60;;;;;;4996213;28;20026;-68
2021/04/02 00:37:33;;;;;;;11.75;6.95;;;15.00;56.30;;;;;;4996322;28;20027;-68
2021/04/02 00:39:58;;;;;;;12.68;6.70;;;15.00;55.10;;;;;;4996012;28;20029;-68
2021/04/02 00:42:25;;;;;;;17.08;7.47;;;15.00;55.70;;;;;;4996158;28;20093;-68
2021/04/02 00:44:51;;;;;;;13.77;7.18;;;15.00;55.50;;;;;;4996200;28;20023;-68
2021/04/02 00:47:17;;;;;;;10.35;6.53;;;15.00;55.40;;;;;;4996292;28;20379;-68
2021/04/02 00:49:42;;;;;;;14.80;6.78;;;15.00;55.40;;;;;;4995993;28;20134;-68
2021/04/02 00:52:08;;;;;;;12.05;6.57;;;15.00;55.50;;;;;;4996124;28;20495;-67
2021/04/02 00:54:34;;;;;;;15.38;5.53;;;14.90;55.20;;;;;;4995926;28;20023;-68
2021/04/02 00:57:00;;;;;;;13.02;6.18;;;14.90;55.20;;;;;;4996185;28;20034;-67
2021/04/02 00:59:25;;;;;;;9.45;5.97;;;14.90;55.10;;;;;;4992984;28;20117;-68
2021/04/02 01:01:51;;;;;;;11.50;6.30;;;14.90;55.00;;;;;;4992993;28;20364;-68
2021/04/02 01:04:17;;;;;;;15.25;6.85;;;14.90;55.20;;;;;;4994115;28;20065;-68
2021/04/02 01:06:43;;;;;;;15.30;6.13;;;14.80;55.40;;;;;;4995781;28;20371;-68
2021/04/02 01:09:09;;;;;;;15.85;6.20;;;14.80;56.30;;;;;;4995636;28;20525;-68
2021/04/02 01:11:35;;;;;;;12.98;6.03;;;14.80;55.90;;;;;;4995719;28;20482;-68
2021/04/02 01:14:01;;;;;;;15.23;6.10;;;14.80;55.70;;;;;;4995333;28;20027;-68
2021/04/02 01:16:30;;;;;;;11.27;6.00;;;14.70;56.60;;;;;;4995355;28;20026;-68
2021/04/02 01:18:58;;;;;;;8.30;5.70;;;14.70;56.20;;;;;;4995227;28;20027;-68
2021/04/02 01:21:39;;;;;;;14.88;5.63;;;14.70;56.30;;;;;;4995307;28;20030;-68
2021/04/02 01:24:08;;;;;;;11.93;6.20;;;14.70;55.90;;;;;;4995449;28;20118;-68
2021/04/02 01:27:01;;;;;;;10.02;5.07;;;14.70;56.40;;;;;;4995545;28;20471;-68
2021/04/02 01:29:33;;;;;;;10.98;5.15;;;14.70;56.30;;;;;;4994987;28;20049;-68
2021/04/02 01:32:02;;;;;;;9.25;5.50;;;14.70;56.80;;;;;;4994901;28;20022;-68
2021/04/02 01:34:36;;;;;;;8.85;5.30;;;14.70;56.60;;;;;;4995286;28;20030;-67
2021/04/02 01:37:07;;;;;;;12.50;5.57;;;14.70;56.00;;;;;;4995062;28;20026;-67
2021/04/02 01:39:37;;;;;;;10.88;5.68;;;14.70;55.90;;;;;;4995127;28;20491;-67
2021/04/02 01:42:05;;;;;;;11.43;5.60;;;14.70;56.60;;;;;;4994955;28;20077;-67
2021/04/02 01:44:36;;;;;;;8.75;5.53;;;14.70;56.30;;;;;;4994658;28;20046;-68
2021/04/02 01:47:02;;;;;;;9.00;5.80;;;14.70;56.50;;;;;;4994760;28;20478;-67
2021/04/02 01:49:31;;;;;;;8.30;5.15;;;14.70;56.90;;;;;;4994605;28;20549;-68
2021/04/02 01:51:57;;;;;;;9.10;5.45;;;14.60;57.70;;;;;;4977081;28;20036;-67
2021/04/02 01:54:24;;;;;;;10.05;5.70;;;14.50;57.10;;;;;;4994735;28;20105;-67
2021/04/02 01:56:53;;;;;;;8.90;5.22;;;14.60;57.30;;;;;;4994565;28;20030;-68
2021/04/02 01:59:22;;;;;;;7.53;5.13;;;14.60;57.10;;;;;;4994924;28;20033;-67
2021/04/02 02:01:49;;;;;;;12.20;5.22;;;14.60;56.50;;;;;;4994923;28;20023;-67
2021/04/02 02:04:18;;;;;;;10.13;5.72;;;14.60;55.70;;;;;;4994654;28;20426;-68
2021/04/02 02:06:46;;;;;;;9.52;5.30;;;14.60;55.90;;;;;;4994755;28;20031;-67
2021/04/02 02:09:16;;;;;;;10.13;5.20;;;14.50;56.00;;;;;;4994645;28;20105;-68
2021/04/02 02:11:43;;;;;;;10.93;5.35;;;14.50;57.40;;;;;;4994408;28;20049;-68
2021/04/02 02:14:14;;;;;;;8.52;5.22;;;14.50;57.80;;;;;;4994172;28;20077;-68
2021/04/02 02:16:42;;;;;;;11.82;4.93;;;14.40;57.60;;;;;;4994288;28;20054;-68
2021/04/02 02:19:12;;;;;;;13.40;4.55;;;14.40;57.00;;;;;;4994787;28;20019;-68
2021/04/02 02:21:41;;;;;;;10.18;4.90;;;14.40;57.40;;;;;;4994660;28;20022;-68
2021/04/02 02:24:07;;;;;;;9.30;5.53;;;14.40;56.50;;;;;;4994543;28;20030;-67
2021/04/02 02:26:33;;;;;;;9.20;4.90;;;14.50;56.90;;;;;;4994339;28;20026;-68
2021/04/02 02:28:59;;;;;;;7.97;5.00;;;14.50;56.40;;;;;;4994222;28;20038;-68
2021/04/02 02:31:25;;;;;;;7.93;4.60;;;14.50;56.00;;;;;;4994227;28;20080;-68
2021/04/02 02:33:50;;;;;;;9.23;4.13;;;14.50;57.60;;;;;;4994376;28;20042;-67
2021/04/02 02:36:17;;;;;;;6.07;4.00;;;14.50;56.40;;;;;;4994172;28;20475;-68
2021/04/02 02:38:43;;;;;;;12.70;4.60;;;14.50;56.10;;;;;;4994090;28;20054;-68
2021/04/02 02:41:09;;;;;;;10.65;4.43;;;14.50;57.00;;;;;;4994290;28;20057;-68
2021/04/02 02:43:35;;;;;;;8.65;4.65;;;14.60;55.90;;;;;;4994157;28;20030;-68
2021/04/02 02:46:01;;;;;;;10.88;4.90;;;14.50;55.50;;;;;;4994144;28;20121;-68
2021/04/02 02:48:27;;;;;;;9.63;4.65;;;14.50;57.10;;;;;;4993996;28;20034;-68
2021/04/02 02:50:56;;;;;;;9.70;4.38;;;14.50;56.80;;;;;;4993782;28;20096;-68
2021/04/02 02:53:28;;;;;;;10.23;4.20;;;14.40;57.70;;;;;;4994072;28;20061;-68
2021/04/02 02:55:55;;;;;;;11.45;5.10;;;14.40;56.80;;;;;;4994114;28;20430;-68
2021/04/02 02:58:26;;;;;;;8.93;4.93;;;14.40;56.70;;;;;;4994039;28;20377;-68
2021/04/02 03:00:53;;;;;;;9.52;4.57;;;14.40;55.90;;;;;;4994005;28;20022;-68
2021/04/02 03:03:22;;;;;;;10.30;4.30;;;14.40;56.30;;;;;;4994200;28;20452;-68
2021/04/02 03:05:50;;;;;;;11.18;4.40;;;14.30;57.10;;;;;;4993855;28;20479;-68
2021/04/02 03:08:22;;;;;;;10.40;4.78;;;14.30;58.00;;;;;;4976129;28;20045;-67
2021/04/02 03:10:49;;;;;;;13.40;4.38;;;14.20;57.40;;;;;;4993855;28;20471;-68
2021/04/02 03:13:17;;;;;;;15.27;5.03;;;14.30;57.00;;;;;;4994040;28;20060;-68
2021/04/02 03:15:44;;;;;;;15.07;5.53;;;14.30;56.70;;;;;;4976198;28;20031;-68
2021/04/02 03:18:14;;;;;;;15.80;5.40;;;14.30;55.60;;;;;;4993735;28;20534;-68
2021/04/02 03:20:40;;;;;;;15.98;5.05;;;14.20;55.90;;;;;;4992035;28;20041;-68
2021/04/02 03:23:08;;;;;;;14.43;5.40;;;14.10;57.30;;;;;;4992121;28;20026;-68
2021/04/02 03:25:35;;;;;;;11.20;4.90;;;14.00;57.20;;;;;;4994706;28;20022;-68
2021/04/02 03:28:02;;;;;;;14.73;5.07;;;14.00;57.50;;;;;;4997649;28;20038;-68
2021/04/02 03:30:29;;;;;;;10.23;5.25;;;13.90;57.40;;;;;;4997428;28;20029;-68
2021/04/02 03:33:09;;;;;;;11.02;5.00;;;14.00;56.60;;;;;;4997344;28;20038;-68
2021/04/02 03:35:36;;;;;;;9.77;5.13;;;13.90;55.90;;;;;;4997596;28;20030;-68
2021/04/02 03:38:03;;;;;;;12.02;4.90;;;13.90;55.90;;;;;;4997557;28;20542;-68
2021/04/02 03:40:31;;;;;;;10.52;4.72;;;13.80;56.10;;;;;;4997655;28;20023;-68
2021/04/02 03:43:00;;;;;;;10.68;5.10;;;13.80;56.90;;;;;;4997385;28;20014;-68
2021/04/02 03:45:27;;;;;;;6.22;4.50;;;13.60;57.70;;;;;;4997307;28;20110;-67
2021/04/02 03:47:54;;;;;;;8.55;4.93;;;13.60;58.40;;;;;;4997290;28;20022;-68
2021/04/02 03:50:22;;;;;;;11.65;4.70;;;13.50;58.10;;;;;;4997043;28;20046;-68
2021/04/02 03:53:10;;;;;;;8.13;4.60;;;13.50;58.70;;;;;;4997100;28;20022;-68
2021/04/02 03:55:39;;;;;;;8.68;4.47;;;13.50;58.70;;;;;;4997043;28;20054;-67
2021/04/02 03:58:08;;;;;;;9.15;5.00;;;13.50;58.50;;;;;;4997328;28;20031;-68
2021/04/02 04:00:53;;;;;;;11.77;5.00;;;13.40;57.80;;;;;;4997082;28;20030;-68
2021/04/02 04:03:20;;;;;;;12.23;4.68;;;13.40;58.30;;;;;;4997094;28;20371;-68
2021/04/02 04:05:49;;;;;;;6.85;4.55;;;13.40;58.20;;;;;;4997082;28;20447;-68
2021/04/02 04:08:17;;;;;;;12.98;4.85;;;13.40;56.90;;;;;;4995807;28;20042;-68
2021/04/02 04:10:45;;;;;;;9.38;4.22;;;13.40;56.70;;;;;;4996876;28;20026;-68
2021/04/02 04:13:14;;;;;;;11.10;4.70;;;13.50;56.70;;;;;;4996917;28;20030;-67
2021/04/02 04:15:42;;;;;;;11.20;4.45;;;13.50;56.60;;;;;;4996746;28;20027;-67
2021/04/02 04:18:10;;;;;;;9.85;4.88;;;13.40;57.00;;;;;;4996751;28;20030;-68
2021/04/02 04:20:37;;;;;;;11.65;4.80;;;13.30;56.90;;;;;;4996557;28;20023;-67
2021/04/02 04:23:04;;;;;;;11.93;4.93;;;13.30;57.50;;;;;;4996680;28;20037;-69
2021/04/02 04:25:30;;;;;;;8.23;4.25;;;13.30;57.30;;;;;;4996905;28;20509;-68
2021/04/02 04:27:58;;;;;;;7.65;4.15;;;13.30;57.50;;;;;;4996268;28;20041;-68
2021/04/02 04:30:25;;;;;;;13.23;4.40;;;13.20;57.80;;;;;;4996352;28;20037;-67
2021/04/02 04:32:54;;;;;;;15.88;4.85;;;13.20;57.80;;;;;;4996513;28;20479;-69
2021/04/02 04:35:20;;;;;;;10.32;4.40;;;13.20;58.20;;;;;;4996281;28;20030;-69
2021/04/02 04:37:47;;;;;;;7.35;4.75;;;13.20;58.00;;;;;;4995686;28;20022;-69
2021/04/02 04:40:19;;;;;;;12.60;4.63;;;13.20;57.90;;;;;;4996027;28;20022;-69
2021/04/02 04:42:47;;;;;;;9.97;4.53;;;13.10;58.20;;;;;;4996438;28;20372;-69
2021/04/02 04:45:19;;;;;;;18.05;5.00;;;13.10;58.30;;;;;;4996111;28;20261;-69
2021/04/02 04:47:45;;;;;;;15.00;5.53;;;13.10;58.40;;;;;;4995974;28;20045;-69
2021/04/02 04:50:13;;;;;;;14.93;5.30;;;13.10;58.50;;;;;;4995836;28;20042;-69
2021/04/02 04:52:48;;;;;;;7.13;5.00;;;13.10;58.70;;;;;;4996149;28;20438;-69
2021/04/02 04:55:16;;;;;;;11.25;5.47;;;13.00;58.90;;;;;;4996108;28;20022;-69
2021/04/02 04:57:43;;;;;;;9.30;4.88;;;13.00;58.60;;;;;;4996025;28;20018;-69
2021/04/02 05:00:11;;;;;;;11.13;4.68;;;13.00;59.40;;;;;;4995990;28;20092;-69
2021/04/02 05:02:41;;;;;;;18.70;4.72;;;13.00;59.30;;;;;;4995806;28;20097;-69
2021/04/02 05:05:09;;;;;;;7.63;4.95;;;13.00;59.90;;;;;;4995808;28;20030;-69
2021/04/02 05:07:38;;;;;;;7.75;4.80;;;13.00;60.30;;;;;;4995690;28;20479;-68
2021/04/02 05:10:04;;;;;;;9.98;5.13;;;13.00;59.70;;;;;;4995731;28;20033;-68
2021/04/02 05:12:31;;;;;;;11.55;5.15;;;13.00;58.90;;;;;;4995856;28;20060;-69
2021/04/02 05:14:58;;;;;;;10.68;5.97;;;13.10;58.50;;;;;;4996079;28;20494;-68
2021/04/02 05:17:24;;;;;;;15.82;5.65;;;13.10;58.50;;;;;;4995710;28;20121;-69
2021/04/02 05:19:51;;;;;;;20.48;5.38;;;13.10;59.10;;;;;;4995831;28;20442;-69
2021/04/02 05:22:16;;;;;;;26.00;5.65;;;13.00;59.60;;;;;;4995732;28;20038;-69
2021/04/02 05:24:42;;;;;;;30.52;6.32;;;13.10;59.70;;;;;;4995699;28;20479;-69
2021/04/02 05:27:08;;;;;;;35.15;6.30;;;13.10;59.50;;;;;;4995540;28;20440;-69
2021/04/02 05:29:34;;;;;;;68.93;8.30;;;13.10;59.20;;;;;;4995185;28;20038;-69
2021/04/02 05:32:00;;;;;;;42.05;7.82;;;13.10;59.10;;;;;;4995171;28;20026;-69
2021/04/02 05:34:25;;;;;;;23.02;5.85;;;13.10;59.50;;;;;;4995523;28;20030;-68
2021/04/02 05:36:51;;;;;;;22.15;6.03;;;13.10;59.30;;;;;;4995506;28;20057;-69
2021/04/02 05:39:17;;;;;;;28.48;6.40;;;13.10;59.80;;;;;;4995259;28;20033;-69
2021/04/02 05:42:16;;;;;;;23.23;6.38;;;13.10;60.70;;;;;;4995181;28;20026;-70
2021/04/02 05:44:46;;;;;;;23.25;6.30;;;13.10;61.10;;;;;;4987135;28;20062;-72
2021/04/02 05:47:14;;;;;;;17.48;5.93;;;13.10;60.60;;;;;;4977104;28;20368;-69
2021/04/02 05:49:40;;;;;;;20.67;6.30;;;13.10;59.80;;;;;;4995629;28;20054;-69
2021/04/02 05:52:07;;;;;;;18.10;6.35;;;13.20;59.50;;;;;;4995071;28;20427;-69
2021/04/02 05:54:37;;;;;;;20.02;5.85;;;13.20;59.30;;;;;;4994686;28;20486;-71
2021/04/02 05:57:04;;;;;;;28.15;5.93;;;13.30;59.10;;;;;;4994873;28;20037;-69
2021/04/02 05:59:31;;;;;;;20.02;6.32;;;13.30;58.60;;;;;;4994855;28;20121;-70
2021/04/02 06:01:57;;;;;;;48.53;8.40;;;13.20;59.10;;;;;;4994634;28;20417;-69
2021/04/02 06:04:23;;;;;;;30.83;6.68;;;13.20;59.50;;;;;;4994453;28;20102;-69
2021/04/02 06:06:49;;;;;;;24.95;6.10;;;13.30;59.80;;;;;;4994422;28;20110;-69
2021/04/02 06:09:15;;;;;;;23.92;6.63;;;13.30;59.90;;;;;;4994384;28;20088;-69
2021/04/02 06:11:41;;;;;;;20.40;7.03;;;13.40;60.00;;;;;;4994563;28;20026;-69
2021/04/02 06:14:08;;;;;;;22.70;6.25;;;13.40;60.00;;;;;;4992958;28;20391;-69
2021/04/02 06:16:34;;;;;;;24.58;6.75;;;13.40;60.20;;;;;;4992105;28;20368;-69
2021/04/02 06:19:08;;;;;;;26.95;6.40;;;13.40;60.10;;;;;;4992823;28;20038;-72
2021/04/02 06:21:49;;;;;;;26.48;7.15;;;13.50;61.10;;;;;;4993294;28;20121;-69
2021/04/02 06:24:16;;;;;;;24.58;7.15;;;13.50;61.60;;;;;;4993233;28;20022;-70
2021/04/02 06:27:02;;;;;;;22.02;6.45;;;13.60;61.60;;;;;;4994250;28;20647;-72
2021/04/02 06:29:29;;;;;;;24.48;6.55;;;13.60;60.70;;;;;;4994071;28;20483;-73
2021/04/02 06:31:55;;;;;;;14.25;6.43;;;13.60;59.60;;;;;;4993361;28;20023;-70
2021/04/02 06:34:22;;;;;;;21.17;6.95;;;13.70;59.80;;;;;;4992397;28;20030;-70
2021/04/02 06:36:50;;;;;;;21.27;7.03;;;13.80;59.70;;;;;;4990753;28;20686;-72
2021/04/02 06:39:16;;;;;;;19.08;6.05;;;13.80;61.20;;;;;;5006167;28;20030;-69
2021/04/02 06:41:43;;;;;;;23.77;8.60;;;13.80;60.20;;;;;;5011629;28;20185;-69
2021/04/02 06:44:09;;;;;;;14.57;6.38;;;13.90;59.60;;;;;;5012724;28;20113;-69
2021/04/02 06:46:40;;;;;;;20.08;7.40;;;13.90;59.60;;;;;;4996127;28;20116;-69
2021/04/02 06:49:13;;;;;;;23.58;7.68;;;14.00;60.30;;;;;;4995287;28;20050;-69
2021/04/02 06:51:40;;;;;;;27.52;8.20;;;14.10;60.40;;;;;;4974253;28;20026;-70
2021/04/02 06:54:07;;;;;;;28.17;8.73;;;14.20;60.10;;;;;;4973493;28;20033;-69
2021/04/02 06:56:34;;;;;;;23.38;7.70;;;14.20;60.20;;;;;;4974423;28;20487;-68
2021/04/02 06:59:02;;;;;;;26.20;7.35;;;14.20;60.80;;;;;;4974228;28;20479;-68
2021/04/02 07:01:35;;;;;;;37.13;7.07;;;14.20;60.80;;;;;;4972956;28;20089;-70
2021/04/02 07:04:00;;;;;;;;;;;14.30;59.80;;;;;;4973460;28;20483;-69
2021/04/02 07:06:27;;;;;;;19.23;5.55;;;14.30;58.90;;;;;;4974595;28;19906;-68
2021/04/02 07:08:54;;;;;;;19.83;6.25;;;14.30;59.10;;;;;;4973146;28;20526;-81
2021/04/02 07:11:21;;;;;;;15.20;6.53;;;14.30;59.40;;;;;;4974469;28;20023;-68
2021/04/02 07:13:51;;;;;;;16.42;6.90;;;14.40;60.20;;;;;;4974287;28;20030;-68
2021/04/02 07:16:19;;;;;;;16.02;6.22;;;14.50;59.90;;;;;;4974291;28;20518;-81
2021/04/02 07:18:45;;;;;;;19.67;6.53;;;14.50;60.50;;;;;;4974348;28;20035;-68
2021/04/02 07:21:11;;;;;;;23.23;6.80;;;14.50;61.30;;;;;;4974526;28;20094;-70
2021/04/02 07:23:39;;;;;;;19.27;6.53;;;14.50;61.40;;;;;;4974280;28;20027;-68
2021/04/02 07:26:06;;;;;;;22.33;7.45;;;14.60;61.90;;;;;;4974374;28;20027;-68
2021/04/02 07:28:32;;;;;;;27.33;7.53;;;14.60;61.50;;;;;;4974023;28;20043;-81
2021/04/02 07:30:59;;;;;;;19.90;7.72;;;14.60;61.00;;;;;;4974271;28;20061;-68
2021/04/02 07:33:26;;;;;;;12.85;6.07;;;14.70;60.80;;;;;;4974091;28;20022;-68
2021/04/02 07:35:57;;;;;;;20.70;6.57;;;14.70;60.70;;;;;;4974096;28;20480;-68
2021/04/02 07:38:28;;;;;;;21.75;6.38;;;14.80;61.10;;;;;;4974276;28;20492;-80
2021/04/02 07:40:54;;;;;;;15.52;6.88;;;14.90;60.80;;;;;;4974254;28;20372;-80
2021/04/02 07:43:20;;;;;;;12.98;5.70;;;14.90;60.60;;;;;;4974027;28;20035;-68
2021/04/02 07:45:52;;;;;;;19.35;6.10;;;15.00;61.30;;;;;;4974216;28;20019;-80
2021/04/02 07:48:24;;;;;;;17.88;6.15;;;15.10;61.20;;;;;;4973990;28;20039;-68
2021/04/02 07:50:50;;;;;;;13.87;6.17;;;15.20;60.90;;;;;;4973928;28;20054;-80
2021/04/02 07:53:20;;;;;;;11.38;5.60;;;15.30;60.80;;;;;;4974012;28;20399;-68
2021/04/02 07:56:16;;;;;;;15.52;6.05;;;15.40;60.70;;;;;;4974128;28;20110;-68
2021/04/02 07:58:50;;;;;;;10.18;5.80;;;15.50;60.50;;;;;;4965679;28;20480;-68
2021/04/02 08:01:23;;;;;;;17.15;5.82;;;15.60;59.40;;;;;;4973998;28;20045;-69
2021/04/02 08:03:50;;;;;;;19.17;6.07;;;15.80;59.10;;;;;;4974058;28;20498;-79
2021/04/02 08:06:38;;;;;;;16.30;6.07;;;15.90;58.10;;;;;;4973978;28;20093;-68
2021/04/02 08:09:07;;;;;;;24.67;6.57;;;16.00;58.10;;;;;;4956272;28;20399;-80
2021/04/02 08:11:38;;;;;;;22.10;6.53;;;16.10;57.80;;;;;;4975070;28;20027;-69
2021/04/02 08:14:13;;;;;;;13.45;6.25;;;16.10;58.00;;;;;;4983361;28;20124;-69
2021/04/02 08:16:40;;;;;;;17.98;6.53;;;16.20;58.10;;;;;;4996625;28;20033;-69
2021/04/02 08:19:10;;;;;;;16.65;6.32;;;16.30;58.00;;;;;;4996551;28;20026;-68
2021/04/02 08:21:38;;;;;;;21.27;5.85;;;16.40;57.50;;;;;;4996303;28;20426;-68
2021/04/02 08:24:06;;;;;;;18.83;6.30;;;16.50;57.40;;;;;;4996546;28;20483;-69
2021/04/02 08:26:34;;;;;;;17.02;6.35;;;16.70;58.30;;;;;;4996480;28;20027;-68
2021/04/02 08:29:01;;;;;;;16.90;6.03;;;16.70;56.90;;;;;;4996425;28;20035;-69
2021/04/02 08:31:26;;;;;;;16.60;4.68;;;16.80;56.10;;;;;;4996601;28;20026;-69
2021/04/02 08:33:54;;;;;;;9.02;3.70;;;17.00;54.80;;;;;;4996248;28;20023;-69
2021/04/02 08:36:22;;;;;;;12.70;3.80;;;17.00;52.10;;;;;;4996297;28;20026;-69
2021/04/02 08:38:48;;;;;;;14.02;4.18;;;17.10;52.40;;;;;;4996229;28;20454;-69
2021/04/02 08:41:21;;;;;;;8.52;3.42;;;17.20;52.50;;;;;;4996345;28;20026;-69
2021/04/02 08:43:47;;;;;;;10.25;3.60;;;17.30;51.80;;;;;;4995886;28;20026;-69
2021/04/02 08:46:14;;;;;;;14.90;3.80;;;17.40;52.30;;;;;;4996187;28;20030;-69
2021/04/02 08:48:43;;;;;;;11.15;4.72;;;17.40;51.90;;;;;;4995506;28;20046;-69
2021/04/02 08:51:16;;;;;;;13.02;3.72;;;17.40;51.50;;;;;;4995703;28;20042;-69
2021/04/02 08:53:42;;;;;;;8.15;3.65;;;17.40;51.80;;;;;;4994932;28;20173;-69
2021/04/02 08:56:14;;;;;;;10.55;3.40;;;17.50;50.70;;;;;;4993529;28;20101;-69
2021/04/02 08:58:41;;;;;;;10.77;3.42;;;17.50;49.50;;;;;;4996315;28;20341;-69
2021/04/02 09:01:07;;;;;;;14.88;3.60;;;17.60;50.50;;;;;;4996212;28;20045;-69
2021/04/02 09:03:33;;;;;;;9.35;3.08;;;17.60;52.10;;;;;;4995978;28;20390;-69
2021/04/02 09:05:59;;;;;;;12.60;3.20;;;17.70;51.70;;;;;;4995906;28;20018;-69
2021/04/02 09:08:24;;;;;;;8.60;3.17;;;17.90;50.60;;;;;;4995869;28;20045;-69
2021/04/02 09:10:52;;;;;;;7.32;3.17;;;18.00;51.40;;;;;;4996237;28;20423;-69
2021/04/02 09:13:46;;;;;;;12.55;3.30;;;18.10;51.00;;;;;;4996048;28;20041;-69
2021/04/02 09:16:14;;;;;;;9.07;2.63;;;18.30;50.00;;;;;;4995333;28;20116;-68
2021/04/02 09:18:46;;;;;;;6.75;2.55;;;18.40;49.50;;;;;;4995651;28;20518;-69
2021/04/02 09:21:12;;;;;;;12.30;2.65;;;18.50;48.90;;;;;;4995875;28;20026;-78
2021/04/02 09:23:39;;;;;;;5.20;2.20;;;18.60;45.90;;;;;;4995757;28;20361;-69
2021/04/02 09:26:08;;;;;;;8.45;2.35;;;18.70;47.70;;;;;;4978086;28;20091;-69
2021/04/02 09:28:37;;;;;;;9.60;2.30;;;18.80;44.10;;;;;;4996381;28;20100;-70
2021/04/02 09:31:23;;;;;;;3.83;2.20;;;19.00;44.50;;;;;;4978044;28;20018;-69
2021/04/02 09:33:57;;;;;;;10.45;2.08;;;19.00;46.00;;;;;;4996034;28;20022;-69
2021/04/02 09:36:28;;;;;;;8.88;2.10;;;19.10;43.90;;;;;;4995750;28;20126;-68
2021/04/02 09:39:12;;;;;;;10.32;2.70;;;19.20;44.10;;;;;;4995448;28;20117;-68
2021/04/02 09:41:42;;;;;;;4.50;2.20;;;19.30;43.70;;;;;;4995322;28;20360;-69
2021/04/02 09:44:13;;;;;;;9.90;2.25;;;19.40;44.60;;;;;;4995378;28;20022;-68
2021/04/02 09:46:41;;;;;;;4.97;2.17;;;19.50;43.30;;;;;;4995395;28;20476;-69
2021/04/02 09:49:10;;;;;;;8.70;2.15;;;19.50;44.10;;;;;;4995240;28;20455;-68
2021/04/02 09:51:40;;;;;;;5.18;2.30;;;19.60;44.60;;;;;;4994987;28;20022;-69
2021/04/02 09:54:06;;;;;;;5.55;2.05;;;;;;;;;;4994924;28;20027;-69
2021/04/02 09:56:32;;;;;;;6.28;2.17;;;19.90;44.40;;;;;;4995258;28;20102;-68
2021/04/02 09:58:57;;;;;;;15.05;2.50;;;20.00;44.30;;;;;;4995282;28;20101;-69
2021/04/02 10:01:23;;;;;;;9.73;2.75;;;20.20;45.70;;;;;;4995011;28;20518;-69
2021/04/02 10:03:50;;;;;;;6.20;2.25;;;20.30;45.30;;;;;;4995034;28;20030;-69
2021/04/02 10:06:17;;;;;;;4.85;2.33;;;20.40;41.90;;;;;;4994843;28;20029;-69
2021/04/02 10:08:43;;;;;;;7.93;2.30;;;20.50;41.70;;;;;;4994581;28;20065;-69
2021/04/02 10:11:09;;;;;;;7.57;2.70;;;20.60;42.20;;;;;;4994859;28;20026;-69
2021/04/02 10:13:34;;;;;;;7.20;2.83;;;20.60;41.80;;;;;;4994785;28;20022;-68
2021/04/02 10:16:00;;;;;;;8.75;3.05;;;20.70;43.80;;;;;;4994853;28;20379;-70
2021/04/02 10:18:28;;;;;;;12.10;4.40;;;20.70;43.40;;;;;;4994752;28;20030;-69
2021/04/02 10:20:55;;;;;;;11.25;3.70;;;20.80;42.10;;;;;;4994669;28;20054;-69
2021/04/02 10:23:21;;;;;;;9.48;3.90;;;20.80;41.90;;;;;;4994447;28;20045;-68
2021/04/02 10:25:47;;;;;;;10.65;4.30;;;20.90;40.70;;;;;;4994227;28;20026;-69
2021/04/02 10:28:13;;;;;;;11.05;4.13;;;20.90;41.70;;;;;;4994646;28;20034;-68
2021/04/02 10:30:39;;;;;;;10.20;3.92;;;21.00;41.30;;;;;;4994552;28;20057;-68
2021/04/02 10:33:05;;;;;;;10.55;4.25;;;21.00;41.00;;;;;;4994632;28;20079;-69
2021/04/02 10:35:33;;;;;;;8.45;4.00;;;21.10;41.30;;;;;;4994121;28;20471;-68
2021/04/02 10:37:58;;;;;;;11.77;3.90;;;21.10;41.70;;;;;;4994282;28;20034;-69
2021/04/02 10:40:25;;;;;;;12.82;4.05;;;21.30;41.60;;;;;;4994137;28;20081;-69
2021/04/02 10:42:51;;;;;;;9.20;3.85;;;21.30;40.90;;;;;;4994281;28;20026;-69
2021/04/02 10:45:17;;;;;;;8.48;4.18;;;21.40;41.00;;;;;;4994261;28;20030;-68
2021/04/02 10:47:43;;;;;;;12.10;3.50;;;21.50;39.40;;;;;;4993752;28;20026;-74
2021/04/02 10:50:09;;;;;;;9.23;3.78;;;21.50;39.10;;;;;;4992821;28;20459;-69
2021/04/02 10:52:35;;;;;;;12.95;3.85;;;21.60;40.30;;;;;;4992693;28;20073;-69
2021/04/02 10:55:01;;;;;;;12.95;4.40;;;21.70;40.60;;;;;;4992783;28;20042;-69
2021/04/02 10:57:26;;;;;;;8.70;3.75;;;21.80;38.80;;;;;;4993420;28;20026;-69
2021/04/02 10:59:52;;;;;;;10.30;3.47;;;21.80;40.60;;;;;;4990531;28;20477;-68
2021/04/02 11:02:18;;;;;;;9.82;4.15;;;21.90;40.90;;;;;;4991258;28;20110;-70
2021/04/02 11:04:43;;;;;;;7.97;4.00;;;22.00;42.20;;;;;;4993301;28;20030;-68
2021/04/02 11:07:09;;;;;;;15.55;4.53;;;22.10;39.60;;;;;;4993853;28;20022;-69
2021/04/02 11:09:35;;;;;;;9.98;3.72;;;22.10;40.90;;;;;;4993571;28;20062;-68
2021/04/02 11:12:02;;;;;;;11.88;4.05;;;22.20;41.50;;;;;;4993564;28;20734;-69
2021/04/02 11:14:27;;;;;;;9.75;3.88;;;22.20;41.20;;;;;;4993698;28;20026;-69
2021/04/02 11:16:53;;;;;;;11.70;4.13;;;22.40;41.10;;;;;;4991787;28;20388;-68
2021/04/02 11:19:19;;;;;;;9.60;3.67;;;22.50;41.30;;;;;;4990731;28;20026;-69
2021/04/02 11:21:44;;;;;;;11.02;3.80;;;22.60;39.60;;;;;;4991020;28;20153;-69
2021/04/02 11:24:10;;;;;;;17.92;4.22;;;22.70;41.50;;;;;;4993021;28;20022;-69
2021/04/02 11:26:36;;;;;;;9.73;3.60;;;22.80;39.40;;;;;;4992651;28;20027;-69
2021/04/02 11:29:02;;;;;;;13.10;4.00;;;22.80;40.50;;;;;;4973260;28;20042;-68
2021/04/02 11:31:28;;;;;;;7.65;4.15;;;22.90;41.40;;;;;;4991308;28;20022;-69
2021/04/02 11:33:54;;;;;;;8.90;4.57;;;23.00;41.50;;;;;;4992538;28;20129;-68
2021/04/02 11:36:19;;;;;;;9.40;4.20;;;23.10;40.90;;;;;;4994012;28;20026;-68
2021/04/02 11:38:45;;;;;;;10.63;4.18;;;23.10;41.10;;;;;;4993387;28;20085;-68
2021/04/02 11:41:11;;;;;;;10.82;4.65;;;;;;;;;;4993217;28;20019;-68
2021/04/02 11:43:37;;;;;;;14.13;4.40;;;23.30;40.20;;;;;;4993399;28;20069;-67
2021/04/02 11:46:03;;;;;;;11.38;5.03;;;23.40;40.10;;;;;;4994093;28;20442;-68
2021/04/02 11:48:29;;;;;;;14.15;5.38;;;23.40;40.80;;;;;;4996949;28;20492;-67
2021/04/02 11:50:55;;;;;;;16.52;5.32;;;23.50;39.20;;;;;;4996957;28;20121;-67
2021/04/02 11:53:21;;;;;;;14.40;5.47;;;23.60;39.40;;;;;;4997283;28;20081;-67
2021/04/02 11:55:47;;;;;;;13.90;5.07;;;23.60;39.50;;;;;;4997071;28;20483;-68
2021/04/02 11:58:13;;;;;;;12.18;5.35;;;23.70;39.70;;;;;;4996891;28;20029;-67
2021/04/02 12:00:39;;;;;;;13.88;5.57;;;23.80;39.00;;;;;;4996686;28;20034;-67
2021/04/02 12:03:05;;;;;;;10.70;5.40;;;23.80;40.00;;;;;;4976183;28;20483;-67
2021/04/02 12:05:31;;;;;;;13.48;5.97;;;23.90;39.30;;;;;;4993999;28;20145;-67
2021/04/02 12:07:57;;;;;;;14.30;5.65;;;23.90;37.40;;;;;;4995160;28;20467;-68
2021/04/02 12:10:23;;;;;;;14.88;6.60;;;24.00;38.40;;;;;;4996530;28;20065;-68
2021/04/02 12:12:48;;;;;;;12.75;6.75;;;24.00;37.90;;;;;;4997028;28;20025;-68
2021/04/02 12:15:14;;;;;;;15.63;6.72;;;24.10;38.70;;;;;;4996660;28;21112;-68
2021/04/02 12:17:40;;;;;;;15.10;7.38;;;24.20;37.20;;;;;;4996482;28;20030;-68
2021/04/02 12:20:09;;;;;;;16.77;7.65;;;24.20;38.40;;;;;;4996566;28;20041;-68
2021/04/02 12:22:36;;;;;;;15.18;8.43;;;24.30;41.20;;;;;;4996476;28;20098;-69
2021/04/02 12:25:02;;;;;;;19.05;8.52;;;24.30;38.90;;;;;;4996154;28;20116;-68
2021/04/02 12:27:28;;;;;;;20.52;6.75;;;24.40;38.70;;;;;;4996184;28;20055;-68
2021/04/02 12:29:55;;;;;;;23.00;8.70;;;24.50;37.70;;;;;;4996528;28;20066;-68
2021/04/02 12:32:22;;;;;;;17.63;9.07;;;24.50;37.00;;;;;;4996168;28;20121;-67
2021/04/02 12:34:48;;;;;;;20.77;9.32;;;24.50;37.60;;;;;;4996558;28;20533;-68
2021/04/02 12:37:14;;;;;;;25.15;10.30;;;24.50;36.30;;;;;;4996136;28;20022;-68
2021/04/02 12:39:41;;;;;;;19.83;9.65;;;24.50;38.30;;;;;;4996109;28;20102;-68
2021/04/02 12:42:07;;;;;;;27.92;10.65;;;24.60;38.10;;;;;;4996059;28;20022;-68
2021/04/02 12:44:33;;;;;;;24.25;10.73;;;24.70;38.30;;;;;;4996361;28;20057;-67